sensor_id;sensor_type;location;lat;lon;timestamp;temperature;humidity
38995;DHT22;24769;18.712;99.000;2023-04-25T00:01:36;25.60;99.90
38995;DHT22;24769;18.712;99.000;2023-04-25T00:04:03;25.70;99.90
38995;DHT22;24769;18.712;99.000;2023-04-25T00:06:34;25.90;99.90
38995;DHT22;24769;18.712;99.000;2023-04-25T00:09:05;25.90;99.90
38995;DHT22;24769;18.712;99.000;2023-04-25T00:11:36;26.00;99.90
38995;DHT22;24769;18.712;99.000;2023-04-25T00:14:04;26.10;99.30
38995;DHT22;24769;18.712;99.000;2023-04-25T00:16:31;26.30;97.00
38995;DHT22;24769;18.712;99.000;2023-04-25T00:19:00;26.40;92.90
38995;DHT22;24769;18.712;99.000;2023-04-25T00:21:27;26.60;89.80
38995;DHT22;24769;18.712;99.000;2023-04-25T00:23:54;27.10;83.40
38995;DHT22;24769;18.712;99.000;2023-04-25T00:26:21;27.40;79.80
38995;DHT22;24769;18.712;99.000;2023-04-25T00:28:48;27.80;75.10
38995;DHT22;24769;18.712;99.000;2023-04-25T00:31:15;28.00;72.00
38995;DHT22;24769;18.712;99.000;2023-04-25T00:33:41;28.20;65.20
38995;DHT22;24769;18.712;99.000;2023-04-25T00:36:08;28.30;64.60
38995;DHT22;24769;18.712;99.000;2023-04-25T00:38:35;28.70;59.30
38995;DHT22;24769;18.712;99.000;2023-04-25T00:41:02;28.90;51.70
38995;DHT22;24769;18.712;99.000;2023-04-25T00:43:29;28.90;52.20
38995;DHT22;24769;18.712;99.000;2023-04-25T00:45:57;28.90;49.60
38995;DHT22;24769;18.712;99.000;2023-04-25T00:48:23;29.20;48.70
38995;DHT22;24769;18.712;99.000;2023-04-25T00:50:57;29.60;44.60
38995;DHT22;24769;18.712;99.000;2023-04-25T00:53:26;29.40;44.10
38995;DHT22;24769;18.712;99.000;2023-04-25T00:55:53;29.40;44.90
38995;DHT22;24769;18.712;99.000;2023-04-25T00:58:21;29.80;40.40
38995;DHT22;24769;18.712;99.000;2023-04-25T01:00:50;30.00;41.70
38995;DHT22;24769;18.712;99.000;2023-04-25T01:03:18;30.40;39.60
38995;DHT22;24769;18.712;99.000;2023-04-25T01:05:48;30.60;37.70
38995;DHT22;24769;18.712;99.000;2023-04-25T01:08:15;30.80;37.20
38995;DHT22;24769;18.712;99.000;2023-04-25T01:10:42;30.80;34.70
38995;DHT22;24769;18.712;99.000;2023-04-25T01:13:08;30.60;36.10
38995;DHT22;24769;18.712;99.000;2023-04-25T01:15:35;31.00;34.90
38995;DHT22;24769;18.712;99.000;2023-04-25T01:18:03;31.10;35.40
38995;DHT22;24769;18.712;99.000;2023-04-25T01:20:32;31.10;34.20
38995;DHT22;24769;18.712;99.000;2023-04-25T01:23:00;31.10;32.90
38995;DHT22;24769;18.712;99.000;2023-04-25T01:25:28;31.30;32.40
38995;DHT22;24769;18.712;99.000;2023-04-25T01:27:55;31.20;32.10
38995;DHT22;24769;18.712;99.000;2023-04-25T01:30:23;31.00;30.40
38995;DHT22;24769;18.712;99.000;2023-04-25T01:32:50;31.00;31.10
38995;DHT22;24769;18.712;99.000;2023-04-25T01:35:16;31.20;28.80
38995;DHT22;24769;18.712;99.000;2023-04-25T01:37:44;31.40;29.60
38995;DHT22;24769;18.712;99.000;2023-04-25T01:40:12;31.40;29.30
38995;DHT22;24769;18.712;99.000;2023-04-25T01:42:41;31.60;29.30
38995;DHT22;24769;18.712;99.000;2023-04-25T01:45:09;31.90;26.40
38995;DHT22;24769;18.712;99.000;2023-04-25T01:47:37;32.40;26.20
38995;DHT22;24769;18.712;99.000;2023-04-25T01:50:07;31.70;27.90
38995;DHT22;24769;18.712;99.000;2023-04-25T01:52:33;31.70;29.40
38995;DHT22;24769;18.712;99.000;2023-04-25T01:55:02;31.70;29.30
38995;DHT22;24769;18.712;99.000;2023-04-25T01:57:28;31.60;30.00
38995;DHT22;24769;18.712;99.000;2023-04-25T02:00:00;31.80;30.60
38995;DHT22;24769;18.712;99.000;2023-04-25T02:04:54;32.20;29.60
38995;DHT22;24769;18.712;99.000;2023-04-25T02:07:21;32.20;31.60
38995;DHT22;24769;18.712;99.000;2023-04-25T02:09:48;32.50;31.40
38995;DHT22;24769;18.712;99.000;2023-04-25T02:12:14;32.40;31.20
38995;DHT22;24769;18.712;99.000;2023-04-25T02:14:41;32.40;31.70
38995;DHT22;24769;18.712;99.000;2023-04-25T02:17:08;32.40;31.20
38995;DHT22;24769;18.712;99.000;2023-04-25T02:19:34;32.50;33.40
38995;DHT22;24769;18.712;99.000;2023-04-25T02:22:01;33.00;32.00
38995;DHT22;24769;18.712;99.000;2023-04-25T02:24:28;33.00;30.80
38995;DHT22;24769;18.712;99.000;2023-04-25T02:26:55;32.70;30.40
38995;DHT22;24769;18.712;99.000;2023-04-25T02:29:22;32.00;32.20
38995;DHT22;24769;18.712;99.000;2023-04-25T02:31:49;32.30;32.80
38995;DHT22;24769;18.712;99.000;2023-04-25T02:34:16;32.40;32.40
38995;DHT22;24769;18.712;99.000;2023-04-25T02:36:42;32.60;33.40
38995;DHT22;24769;18.712;99.000;2023-04-25T02:39:09;33.00;33.50
38995;DHT22;24769;18.712;99.000;2023-04-25T02:41:36;33.20;35.00
38995;DHT22;24769;18.712;99.000;2023-04-25T02:44:03;33.50;33.50
38995;DHT22;24769;18.712;99.000;2023-04-25T02:46:30;33.30;32.40
38995;DHT22;24769;18.712;99.000;2023-04-25T02:48:56;33.50;35.50
38995;DHT22;24769;18.712;99.000;2023-04-25T02:51:23;33.60;45.70
38995;DHT22;24769;18.712;99.000;2023-04-25T02:53:49;33.90;32.20
38995;DHT22;24769;18.712;99.000;2023-04-25T02:56:16;33.50;47.50
38995;DHT22;24769;18.712;99.000;2023-04-25T02:58:43;33.70;25.90
38995;DHT22;24769;18.712;99.000;2023-04-25T03:01:10;33.90;23.80
38995;DHT22;24769;18.712;99.000;2023-04-25T03:03:37;34.00;22.70
38995;DHT22;24769;18.712;99.000;2023-04-25T03:06:03;34.30;23.10
38995;DHT22;24769;18.712;99.000;2023-04-25T03:08:30;34.30;21.10
38995;DHT22;24769;18.712;99.000;2023-04-25T03:10:59;34.50;20.50
38995;DHT22;24769;18.712;99.000;2023-04-25T03:13:25;34.10;19.30
38995;DHT22;24769;18.712;99.000;2023-04-25T03:15:53;34.00;20.50
38995;DHT22;24769;18.712;99.000;2023-04-25T03:18:20;34.10;19.70
38995;DHT22;24769;18.712;99.000;2023-04-25T03:20:46;34.30;21.00
38995;DHT22;24769;18.712;99.000;2023-04-25T03:23:13;34.80;18.80
38995;DHT22;24769;18.712;99.000;2023-04-25T03:25:39;34.30;18.20
38995;DHT22;24769;18.712;99.000;2023-04-25T03:28:06;34.70;21.00
38995;DHT22;24769;18.712;99.000;2023-04-25T03:30:33;34.90;18.20
38995;DHT22;24769;18.712;99.000;2023-04-25T03:33:00;34.80;19.10
38995;DHT22;24769;18.712;99.000;2023-04-25T03:35:26;34.60;21.10
38995;DHT22;24769;18.712;99.000;2023-04-25T03:37:53;34.80;16.90
38995;DHT22;24769;18.712;99.000;2023-04-25T03:40:19;34.70;16.70
38995;DHT22;24769;18.712;99.000;2023-04-25T03:42:46;35.10;17.40
38995;DHT22;24769;18.712;99.000;2023-04-25T03:45:13;35.20;17.20
38995;DHT22;24769;18.712;99.000;2023-04-25T03:47:39;35.40;17.10
38995;DHT22;24769;18.712;99.000;2023-04-25T03:50:06;35.50;15.30
38995;DHT22;24769;18.712;99.000;2023-04-25T03:52:33;35.40;14.00
38995;DHT22;24769;18.712;99.000;2023-04-25T03:55:00;35.00;14.20
38995;DHT22;24769;18.712;99.000;2023-04-25T03:57:28;35.40;14.50
38995;DHT22;24769;18.712;99.000;2023-04-25T03:59:55;35.60;14.90
38995;DHT22;24769;18.712;99.000;2023-04-25T04:02:22;35.80;14.10
38995;DHT22;24769;18.712;99.000;2023-04-25T04:04:49;35.80;13.70
38995;DHT22;24769;18.712;99.000;2023-04-25T04:07:15;36.00;14.80
38995;DHT22;24769;18.712;99.000;2023-04-25T04:09:42;36.20;14.20
38995;DHT22;24769;18.712;99.000;2023-04-25T04:12:08;36.00;10.70
38995;DHT22;24769;18.712;99.000;2023-04-25T04:14:35;36.00;13.60
38995;DHT22;24769;18.712;99.000;2023-04-25T04:17:02;36.10;11.20
38995;DHT22;24769;18.712;99.000;2023-04-25T04:19:29;36.40;13.40
38995;DHT22;24769;18.712;99.000;2023-04-25T04:21:55;36.30;11.80
38995;DHT22;24769;18.712;99.000;2023-04-25T04:24:22;36.20;11.80
38995;DHT22;24769;18.712;99.000;2023-04-25T04:26:50;36.50;11.40
38995;DHT22;24769;18.712;99.000;2023-04-25T04:29:16;36.70;11.90
38995;DHT22;24769;18.712;99.000;2023-04-25T04:31:50;36.80;11.40
38995;DHT22;24769;18.712;99.000;2023-04-25T04:34:17;36.90;11.80
38995;DHT22;24769;18.712;99.000;2023-04-25T04:36:45;37.20;9.00
38995;DHT22;24769;18.712;99.000;2023-04-25T04:39:14;36.80;8.40
38995;DHT22;24769;18.712;99.000;2023-04-25T04:41:41;36.60;9.80
38995;DHT22;24769;18.712;99.000;2023-04-25T04:44:08;36.80;8.20
38995;DHT22;24769;18.712;99.000;2023-04-25T04:46:36;36.60;9.60
38995;DHT22;24769;18.712;99.000;2023-04-25T04:49:11;36.50;9.50
38995;DHT22;24769;18.712;99.000;2023-04-25T04:51:38;36.60;9.20
38995;DHT22;24769;18.712;99.000;2023-04-25T04:54:05;36.60;9.60
38995;DHT22;24769;18.712;99.000;2023-04-25T04:56:32;36.80;8.70
38995;DHT22;24769;18.712;99.000;2023-04-25T04:58:59;37.10;8.40
38995;DHT22;24769;18.712;99.000;2023-04-25T05:01:26;37.50;7.80
38995;DHT22;24769;18.712;99.000;2023-04-25T05:03:53;37.00;8.00
38995;DHT22;24769;18.712;99.000;2023-04-25T05:06:19;37.10;7.20
38995;DHT22;24769;18.712;99.000;2023-04-25T05:08:46;37.50;6.20
38995;DHT22;24769;18.712;99.000;2023-04-25T05:11:12;37.70;5.60
38995;DHT22;24769;18.712;99.000;2023-04-25T05:13:39;37.70;4.70
38995;DHT22;24769;18.712;99.000;2023-04-25T05:16:05;37.80;4.30
38995;DHT22;24769;18.712;99.000;2023-04-25T05:18:32;37.50;3.40
38995;DHT22;24769;18.712;99.000;2023-04-25T05:20:58;37.10;4.50
38995;DHT22;24769;18.712;99.000;2023-04-25T05:23:25;37.20;5.70
38995;DHT22;24769;18.712;99.000;2023-04-25T05:25:53;37.60;5.60
38995;DHT22;24769;18.712;99.000;2023-04-25T05:28:20;37.90;4.80
38995;DHT22;24769;18.712;99.000;2023-04-25T05:30:48;37.70;3.90
38995;DHT22;24769;18.712;99.000;2023-04-25T05:33:15;37.40;4.30
38995;DHT22;24769;18.712;99.000;2023-04-25T05:35:42;37.90;4.20
38995;DHT22;24769;18.712;99.000;2023-04-25T05:38:09;38.50;3.40
38995;DHT22;24769;18.712;99.000;2023-04-25T05:40:36;38.50;3.60
38995;DHT22;24769;18.712;99.000;2023-04-25T05:43:02;38.40;3.60
38995;DHT22;24769;18.712;99.000;2023-04-25T05:45:29;38.70;3.80
38995;DHT22;24769;18.712;99.000;2023-04-25T05:47:55;38.50;2.70
38995;DHT22;24769;18.712;99.000;2023-04-25T05:50:22;37.90;2.70
38995;DHT22;24769;18.712;99.000;2023-04-25T05:52:49;37.70;2.10
38995;DHT22;24769;18.712;99.000;2023-04-25T05:55:16;37.70;3.10
38995;DHT22;24769;18.712;99.000;2023-04-25T05:57:42;38.40;2.30
38995;DHT22;24769;18.712;99.000;2023-04-25T06:00:13;38.30;1.90
38995;DHT22;24769;18.712;99.000;2023-04-25T06:02:42;38.60;1.30
38995;DHT22;24769;18.712;99.000;2023-04-25T06:05:09;38.70;2.20
38995;DHT22;24769;18.712;99.000;2023-04-25T06:07:36;38.20;1.90
38995;DHT22;24769;18.712;99.000;2023-04-25T06:10:02;37.90;2.10
38995;DHT22;24769;18.712;99.000;2023-04-25T06:12:32;37.90;2.00
38995;DHT22;24769;18.712;99.000;2023-04-25T06:15:00;38.40;2.20
38995;DHT22;24769;18.712;99.000;2023-04-25T06:17:27;38.60;1.80
38995;DHT22;24769;18.712;99.000;2023-04-25T06:19:53;38.60;2.10
38995;DHT22;24769;18.712;99.000;2023-04-25T06:22:20;38.30;1.60
38995;DHT22;24769;18.712;99.000;2023-04-25T06:24:47;38.30;1.00
38995;DHT22;24769;18.712;99.000;2023-04-25T06:27:13;38.50;1.10
38995;DHT22;24769;18.712;99.000;2023-04-25T06:29:40;38.30;1.00
38995;DHT22;24769;18.712;99.000;2023-04-25T06:32:07;38.30;1.50
38995;DHT22;24769;18.712;99.000;2023-04-25T06:34:34;38.40;1.50
38995;DHT22;24769;18.712;99.000;2023-04-25T06:37:00;38.30;1.00
38995;DHT22;24769;18.712;99.000;2023-04-25T06:39:27;38.40;1.00
38995;DHT22;24769;18.712;99.000;2023-04-25T06:41:53;38.70;1.00
38995;DHT22;24769;18.712;99.000;2023-04-25T06:44:20;38.70;1.00
38995;DHT22;24769;18.712;99.000;2023-04-25T06:46:49;38.90;1.00
38995;DHT22;24769;18.712;99.000;2023-04-25T06:49:15;38.80;1.00
38995;DHT22;24769;18.712;99.000;2023-04-25T06:51:42;38.90;1.00
38995;DHT22;24769;18.712;99.000;2023-04-25T06:54:09;38.90;1.00
38995;DHT22;24769;18.712;99.000;2023-04-25T06:56:35;39.10;1.00
38995;DHT22;24769;18.712;99.000;2023-04-25T06:59:02;39.00;1.30
38995;DHT22;24769;18.712;99.000;2023-04-25T07:01:29;39.30;1.00
38995;DHT22;24769;18.712;99.000;2023-04-25T07:03:56;39.10;1.00
38995;DHT22;24769;18.712;99.000;2023-04-25T07:06:22;39.00;1.00
38995;DHT22;24769;18.712;99.000;2023-04-25T07:08:49;38.70;1.00
38995;DHT22;24769;18.712;99.000;2023-04-25T07:11:15;39.00;1.00
38995;DHT22;24769;18.712;99.000;2023-04-25T07:13:42;39.50;1.00
38995;DHT22;24769;18.712;99.000;2023-04-25T07:16:09;39.10;1.00
38995;DHT22;24769;18.712;99.000;2023-04-25T07:18:35;39.30;1.00
38995;DHT22;24769;18.712;99.000;2023-04-25T07:21:02;39.10;1.00
38995;DHT22;24769;18.712;99.000;2023-04-25T07:23:29;39.00;1.00
38995;DHT22;24769;18.712;99.000;2023-04-25T07:25:56;38.80;1.00
38995;DHT22;24769;18.712;99.000;2023-04-25T07:28:22;39.00;1.00
38995;DHT22;24769;18.712;99.000;2023-04-25T07:30:49;39.00;1.00
38995;DHT22;24769;18.712;99.000;2023-04-25T07:33:16;39.10;1.00
38995;DHT22;24769;18.712;99.000;2023-04-25T07:35:42;39.10;1.00
38995;DHT22;24769;18.712;99.000;2023-04-25T07:38:09;38.80;1.00
38995;DHT22;24769;18.712;99.000;2023-04-25T07:40:36;38.80;1.00
38995;DHT22;24769;18.712;99.000;2023-04-25T07:43:03;38.80;1.00
38995;DHT22;24769;18.712;99.000;2023-04-25T07:45:29;39.00;1.00
38995;DHT22;24769;18.712;99.000;2023-04-25T07:47:56;39.10;1.00
38995;DHT22;24769;18.712;99.000;2023-04-25T07:50:23;39.00;1.00
38995;DHT22;24769;18.712;99.000;2023-04-25T07:52:49;39.20;1.00
38995;DHT22;24769;18.712;99.000;2023-04-25T07:55:16;38.80;1.00
38995;DHT22;24769;18.712;99.000;2023-04-25T07:57:43;39.00;1.00
38995;DHT22;24769;18.712;99.000;2023-04-25T08:00:10;39.00;1.00
38995;DHT22;24769;18.712;99.000;2023-04-25T08:02:37;38.90;1.00
38995;DHT22;24769;18.712;99.000;2023-04-25T08:05:04;38.60;1.00
38995;DHT22;24769;18.712;99.000;2023-04-25T08:07:32;38.70;1.00
38995;DHT22;24769;18.712;99.000;2023-04-25T08:09:59;38.80;1.00
38995;DHT22;24769;18.712;99.000;2023-04-25T08:12:25;39.00;1.00
38995;DHT22;24769;18.712;99.000;2023-04-25T08:14:52;39.10;1.00
38995;DHT22;24769;18.712;99.000;2023-04-25T08:17:19;39.10;1.00
38995;DHT22;24769;18.712;99.000;2023-04-25T08:19:46;39.10;1.00
38995;DHT22;24769;18.712;99.000;2023-04-25T08:22:12;39.10;1.00
38995;DHT22;24769;18.712;99.000;2023-04-25T08:24:39;38.80;1.00
38995;DHT22;24769;18.712;99.000;2023-04-25T08:27:05;38.50;1.00
38995;DHT22;24769;18.712;99.000;2023-04-25T08:29:34;38.70;1.00
38995;DHT22;24769;18.712;99.000;2023-04-25T08:32:01;38.50;1.00
38995;DHT22;24769;18.712;99.000;2023-04-25T08:34:27;38.50;1.00
38995;DHT22;24769;18.712;99.000;2023-04-25T08:36:54;38.40;1.00
38995;DHT22;24769;18.712;99.000;2023-04-25T08:39:21;38.20;1.00
38995;DHT22;24769;18.712;99.000;2023-04-25T08:41:48;38.20;1.00
38995;DHT22;24769;18.712;99.000;2023-04-25T08:44:15;38.40;1.00
38995;DHT22;24769;18.712;99.000;2023-04-25T08:46:43;38.40;1.00
38995;DHT22;24769;18.712;99.000;2023-04-25T08:49:17;38.50;1.00
38995;DHT22;24769;18.712;99.000;2023-04-25T08:51:46;38.20;1.00
38995;DHT22;24769;18.712;99.000;2023-04-25T08:54:14;38.00;1.00
38995;DHT22;24769;18.712;99.000;2023-04-25T08:56:45;38.00;1.00
38995;DHT22;24769;18.712;99.000;2023-04-25T08:59:14;38.10;1.00
38995;DHT22;24769;18.712;99.000;2023-04-25T09:01:41;38.30;1.00
38995;DHT22;24769;18.712;99.000;2023-04-25T09:04:08;38.20;1.00
38995;DHT22;24769;18.712;99.000;2023-04-25T09:06:35;38.10;1.00
38995;DHT22;24769;18.712;99.000;2023-04-25T09:09:06;37.90;1.00
38995;DHT22;24769;18.712;99.000;2023-04-25T09:11:34;37.70;1.70
38995;DHT22;24769;18.712;99.000;2023-04-25T09:19:24;37.10;2.50
38995;DHT22;24769;18.712;99.000;2023-04-25T09:21:55;37.00;3.40
38995;DHT22;24769;18.712;99.000;2023-04-25T09:24:32;36.90;3.50
38995;DHT22;24769;18.712;99.000;2023-04-25T09:26:59;36.80;3.60
38995;DHT22;24769;18.712;99.000;2023-04-25T09:29:35;36.80;3.80
38995;DHT22;24769;18.712;99.000;2023-04-25T09:32:21;36.80;4.50
38995;DHT22;24769;18.712;99.000;2023-04-25T09:37:33;36.90;4.40
38995;DHT22;24769;18.712;99.000;2023-04-25T09:40:05;36.60;4.00
38995;DHT22;24769;18.712;99.000;2023-04-25T09:42:32;36.60;4.50
38995;DHT22;24769;18.712;99.000;2023-04-25T09:45:01;36.50;4.00
38995;DHT22;24769;18.712;99.000;2023-04-25T09:47:28;36.40;4.90
38995;DHT22;24769;18.712;99.000;2023-04-25T09:49:55;36.40;4.60
38995;DHT22;24769;18.712;99.000;2023-04-25T09:52:23;36.30;3.40
38995;DHT22;24769;18.712;99.000;2023-04-25T09:54:51;36.10;3.40
38995;DHT22;24769;18.712;99.000;2023-04-25T10:02:18;35.80;1.80
38995;DHT22;24769;18.712;99.000;2023-04-25T10:04:53;35.70;1.70
38995;DHT22;24769;18.712;99.000;2023-04-25T10:07:23;35.70;1.10
38995;DHT22;24769;18.712;99.000;2023-04-25T10:09:58;35.70;1.30
38995;DHT22;24769;18.712;99.000;2023-04-25T10:12:32;35.70;1.20
38995;DHT22;24769;18.712;99.000;2023-04-25T10:15:00;35.50;1.00
38995;DHT22;24769;18.712;99.000;2023-04-25T10:17:27;35.30;2.70
38995;DHT22;24769;18.712;99.000;2023-04-25T10:19:55;35.40;3.30
38995;DHT22;24769;18.712;99.000;2023-04-25T10:22:36;35.30;3.30
38995;DHT22;24769;18.712;99.000;2023-04-25T10:25:03;35.20;4.40
38995;DHT22;24769;18.712;99.000;2023-04-25T10:27:31;35.20;3.00
38995;DHT22;24769;18.712;99.000;2023-04-25T10:30:24;35.20;3.50
38995;DHT22;24769;18.712;99.000;2023-04-25T10:32:51;35.00;5.60
38995;DHT22;24769;18.712;99.000;2023-04-25T10:35:30;34.90;4.20
38995;DHT22;24769;18.712;99.000;2023-04-25T10:38:03;34.90;5.90
38995;DHT22;24769;18.712;99.000;2023-04-25T10:40:31;34.70;7.10
38995;DHT22;24769;18.712;99.000;2023-04-25T10:43:37;34.80;5.40
38995;DHT22;24769;18.712;99.000;2023-04-25T10:46:27;34.70;6.00
38995;DHT22;24769;18.712;99.000;2023-04-25T10:48:56;34.60;6.30
38995;DHT22;24769;18.712;99.000;2023-04-25T10:54:04;34.50;5.90
38995;DHT22;24769;18.712;99.000;2023-04-25T10:56:31;34.40;7.20
38995;DHT22;24769;18.712;99.000;2023-04-25T10:59:11;34.10;9.00
38995;DHT22;24769;18.712;99.000;2023-04-25T11:01:40;34.00;9.10
38995;DHT22;24769;18.712;99.000;2023-04-25T11:04:28;33.90;9.60
38995;DHT22;24769;18.712;99.000;2023-04-25T11:09:30;33.60;11.60
38995;DHT22;24769;18.712;99.000;2023-04-25T11:11:57;33.50;9.90
38995;DHT22;24769;18.712;99.000;2023-04-25T11:14:25;33.50;11.50
38995;DHT22;24769;18.712;99.000;2023-04-25T11:16:56;33.20;12.40
38995;DHT22;24769;18.712;99.000;2023-04-25T11:19:24;33.00;11.10
38995;DHT22;24769;18.712;99.000;2023-04-25T11:21:54;33.00;10.70
38995;DHT22;24769;18.712;99.000;2023-04-25T11:24:32;33.10;10.90
38995;DHT22;24769;18.712;99.000;2023-04-25T11:27:01;33.00;10.30
38995;DHT22;24769;18.712;99.000;2023-04-25T11:29:33;32.90;11.10
38995;DHT22;24769;18.712;99.000;2023-04-25T11:32:00;32.80;11.20
38995;DHT22;24769;18.712;99.000;2023-04-25T11:34:29;32.80;11.20
38995;DHT22;24769;18.712;99.000;2023-04-25T11:37:00;32.70;12.10
38995;DHT22;24769;18.712;99.000;2023-04-25T11:39:28;32.60;12.80
38995;DHT22;24769;18.712;99.000;2023-04-25T11:41:55;32.30;14.30
38995;DHT22;24769;18.712;99.000;2023-04-25T11:44:22;32.10;14.90
38995;DHT22;24769;18.712;99.000;2023-04-25T11:46:49;32.00;15.40
38995;DHT22;24769;18.712;99.000;2023-04-25T11:49:16;31.80;15.60
38995;DHT22;24769;18.712;99.000;2023-04-25T11:51:46;31.60;16.70
38995;DHT22;24769;18.712;99.000;2023-04-25T11:54:13;31.50;16.90
38995;DHT22;24769;18.712;99.000;2023-04-25T11:56:44;31.50;17.30
38995;DHT22;24769;18.712;99.000;2023-04-25T11:59:12;31.40;17.80
38995;DHT22;24769;18.712;99.000;2023-04-25T12:01:40;31.30;18.40
38995;DHT22;24769;18.712;99.000;2023-04-25T12:04:15;31.20;19.20
38995;DHT22;24769;18.712;99.000;2023-04-25T12:06:43;31.10;19.30
38995;DHT22;24769;18.712;99.000;2023-04-25T12:09:13;30.90;19.40
38995;DHT22;24769;18.712;99.000;2023-04-25T12:11:48;30.80;20.40
38995;DHT22;24769;18.712;99.000;2023-04-25T12:14:29;30.80;18.60
38995;DHT22;24769;18.712;99.000;2023-04-25T12:16:58;31.20;17.80
38995;DHT22;24769;18.712;99.000;2023-04-25T12:19:25;31.00;19.20
38995;DHT22;24769;18.712;99.000;2023-04-25T12:21:53;31.00;19.80
38995;DHT22;24769;18.712;99.000;2023-04-25T12:24:25;30.80;20.80
38995;DHT22;24769;18.712;99.000;2023-04-25T12:29:26;30.30;23.60
38995;DHT22;24769;18.712;99.000;2023-04-25T12:31:54;30.40;22.90
38995;DHT22;24769;18.712;99.000;2023-04-25T12:34:22;30.60;22.20
38995;DHT22;24769;18.712;99.000;2023-04-25T12:36:49;30.30;22.70
38995;DHT22;24769;18.712;99.000;2023-04-25T12:39:21;30.40;22.80
38995;DHT22;24769;18.712;99.000;2023-04-25T12:41:52;30.30;23.40
38995;DHT22;24769;18.712;99.000;2023-04-25T12:44:20;30.00;25.10
38995;DHT22;24769;18.712;99.000;2023-04-25T12:46:48;30.10;25.30
38995;DHT22;24769;18.712;99.000;2023-04-25T12:49:14;30.40;24.00
38995;DHT22;24769;18.712;99.000;2023-04-25T12:51:41;30.70;20.50
38995;DHT22;24769;18.712;99.000;2023-04-25T12:54:08;30.90;19.30
38995;DHT22;24769;18.712;99.000;2023-04-25T12:56:35;30.90;18.50
38995;DHT22;24769;18.712;99.000;2023-04-25T12:59:02;30.90;18.70
38995;DHT22;24769;18.712;99.000;2023-04-25T13:01:31;30.60;20.50
38995;DHT22;24769;18.712;99.000;2023-04-25T13:03:58;30.40;20.90
38995;DHT22;24769;18.712;99.000;2023-04-25T13:06:25;30.30;22.50
38995;DHT22;24769;18.712;99.000;2023-04-25T13:08:52;30.00;22.70
38995;DHT22;24769;18.712;99.000;2023-04-25T13:11:19;30.00;23.20
38995;DHT22;24769;18.712;99.000;2023-04-25T13:13:46;30.10;22.90
38995;DHT22;24769;18.712;99.000;2023-04-25T13:16:13;30.10;21.70
38995;DHT22;24769;18.712;99.000;2023-04-25T13:18:42;30.00;22.60
38995;DHT22;24769;18.712;99.000;2023-04-25T13:21:10;30.00;23.90
38995;DHT22;24769;18.712;99.000;2023-04-25T13:23:37;30.00;24.90
38995;DHT22;24769;18.712;99.000;2023-04-25T13:26:04;29.90;23.50
38995;DHT22;24769;18.712;99.000;2023-04-25T13:28:31;29.80;24.20
38995;DHT22;24769;18.712;99.000;2023-04-25T13:30:58;29.70;25.90
38995;DHT22;24769;18.712;99.000;2023-04-25T13:33:25;29.50;26.00
38995;DHT22;24769;18.712;99.000;2023-04-25T13:35:52;29.40;26.80
38995;DHT22;24769;18.712;99.000;2023-04-25T13:38:27;29.40;27.10
38995;DHT22;24769;18.712;99.000;2023-04-25T13:40:53;29.50;27.00
38995;DHT22;24769;18.712;99.000;2023-04-25T13:43:20;29.60;25.20
38995;DHT22;24769;18.712;99.000;2023-04-25T13:45:50;29.70;23.50
38995;DHT22;24769;18.712;99.000;2023-04-25T13:48:18;29.80;23.30
38995;DHT22;24769;18.712;99.000;2023-04-25T13:50:45;29.90;23.00
38995;DHT22;24769;18.712;99.000;2023-04-25T13:53:12;29.80;22.30
38995;DHT22;24769;18.712;99.000;2023-04-25T13:55:38;29.80;22.10
38995;DHT22;24769;18.712;99.000;2023-04-25T13:58:05;29.90;21.10
38995;DHT22;24769;18.712;99.000;2023-04-25T14:00:37;29.80;20.90
38995;DHT22;24769;18.712;99.000;2023-04-25T14:03:09;29.70;21.70
38995;DHT22;24769;18.712;99.000;2023-04-25T14:05:36;29.70;21.60
38995;DHT22;24769;18.712;99.000;2023-04-25T14:08:07;29.80;21.30
38995;DHT22;24769;18.712;99.000;2023-04-25T14:10:35;29.80;23.70
38995;DHT22;24769;18.712;99.000;2023-04-25T14:13:02;29.60;22.50
38995;DHT22;24769;18.712;99.000;2023-04-25T14:15:33;29.50;23.30
38995;DHT22;24769;18.712;99.000;2023-04-25T14:18:00;29.50;23.90
38995;DHT22;24769;18.712;99.000;2023-04-25T14:20:27;29.40;24.80
38995;DHT22;24769;18.712;99.000;2023-04-25T14:22:54;29.20;24.30
38995;DHT22;24769;18.712;99.000;2023-04-25T14:25:23;29.30;24.20
38995;DHT22;24769;18.712;99.000;2023-04-25T14:27:50;29.40;24.40
38995;DHT22;24769;18.712;99.000;2023-04-25T14:30:18;29.40;24.30
38995;DHT22;24769;18.712;99.000;2023-04-25T14:32:45;29.30;23.90
38995;DHT22;24769;18.712;99.000;2023-04-25T14:35:12;29.30;24.60
38995;DHT22;24769;18.712;99.000;2023-04-25T14:37:39;29.10;26.30
38995;DHT22;24769;18.712;99.000;2023-04-25T14:40:07;29.00;27.90
38995;DHT22;24769;18.712;99.000;2023-04-25T14:42:37;28.90;27.80
38995;DHT22;24769;18.712;99.000;2023-04-25T14:45:07;28.80;27.90
38995;DHT22;24769;18.712;99.000;2023-04-25T14:47:37;28.80;28.30
38995;DHT22;24769;18.712;99.000;2023-04-25T14:50:05;28.80;27.10
38995;DHT22;24769;18.712;99.000;2023-04-25T14:52:32;29.00;27.00
38995;DHT22;24769;18.712;99.000;2023-04-25T14:54:59;29.10;27.50
38995;DHT22;24769;18.712;99.000;2023-04-25T14:57:34;29.10;26.90
38995;DHT22;24769;18.712;99.000;2023-04-25T15:00:03;29.00;27.50
38995;DHT22;24769;18.712;99.000;2023-04-25T15:02:32;28.90;27.80
38995;DHT22;24769;18.712;99.000;2023-04-25T15:05:00;28.70;29.60
38995;DHT22;24769;18.712;99.000;2023-04-25T15:07:27;28.70;30.00
38995;DHT22;24769;18.712;99.000;2023-04-25T15:09:53;28.70;30.40
38995;DHT22;24769;18.712;99.000;2023-04-25T15:12:21;28.70;30.90
38995;DHT22;24769;18.712;99.000;2023-04-25T15:14:48;28.50;31.60
38995;DHT22;24769;18.712;99.000;2023-04-25T15:17:15;28.40;33.70
38995;DHT22;24769;18.712;99.000;2023-04-25T15:19:42;28.30;34.70
38995;DHT22;24769;18.712;99.000;2023-04-25T15:22:09;28.10;34.60
38995;DHT22;24769;18.712;99.000;2023-04-25T15:24:36;28.10;36.00
38995;DHT22;24769;18.712;99.000;2023-04-25T15:27:03;28.10;35.60
38995;DHT22;24769;18.712;99.000;2023-04-25T15:29:30;28.10;36.40
38995;DHT22;24769;18.712;99.000;2023-04-25T15:31:57;28.00;37.20
38995;DHT22;24769;18.712;99.000;2023-04-25T15:34:24;27.90;37.00
38995;DHT22;24769;18.712;99.000;2023-04-25T15:36:51;27.80;37.90
38995;DHT22;24769;18.712;99.000;2023-04-25T15:39:17;27.70;38.20
38995;DHT22;24769;18.712;99.000;2023-04-25T15:41:44;27.80;36.90
38995;DHT22;24769;18.712;99.000;2023-04-25T15:44:10;28.10;36.70
38995;DHT22;24769;18.712;99.000;2023-04-25T15:46:37;28.50;31.00
38995;DHT22;24769;18.712;99.000;2023-04-25T15:49:04;28.70;30.80
38995;DHT22;24769;18.712;99.000;2023-04-25T15:51:31;28.70;31.90